createdAt,value
2022-11-16T00:00:49.468Z,17.68
2022-11-16T00:03:16.568Z,17.68
2022-11-16T00:05:43.648Z,17.63
2022-11-16T00:08:10.690Z,17.55
2022-11-16T00:10:39.248Z,17.47
2022-11-16T00:13:06.307Z,17.46
2022-11-16T00:15:33.366Z,17.50
2022-11-16T00:18:00.389Z,17.51
2022-11-16T00:20:27.386Z,17.45
2022-11-16T00:22:54.466Z,17.46
2022-11-16T00:25:21.468Z,17.50
2022-11-16T00:27:51.008Z,17.49
2022-11-16T00:30:18.086Z,17.50
2022-11-16T00:32:45.087Z,17.44
2022-11-16T00:35:12.148Z,17.45
2022-11-16T00:37:39.248Z,17.52
2022-11-16T00:40:08.007Z,17.54
2022-11-16T00:42:35.089Z,17.57
2022-11-16T00:45:03.967Z,17.61
2022-11-16T00:47:30.968Z,17.66
2022-11-16T00:49:58.547Z,17.73
2022-11-16T00:52:25.667Z,17.77
2022-11-16T00:54:52.866Z,17.78
2022-11-16T00:57:20.068Z,17.82
2022-11-16T00:59:47.208Z,17.80
2022-11-16T01:02:15.966Z,17.86
2022-11-16T01:04:43.095Z,17.85
2022-11-16T01:07:10.297Z,17.57
2022-11-16T01:09:37.386Z,17.65
2022-11-16T01:12:05.108Z,17.71
2022-11-16T01:14:32.189Z,17.75
2022-11-16T01:16:59.307Z,17.72
2022-11-16T01:19:27.828Z,17.72
2022-11-16T01:21:55.092Z,17.74
2022-11-16T01:24:23.626Z,17.69
2022-11-16T01:26:50.768Z,17.72
2022-11-16T01:29:18.028Z,17.72
2022-11-16T01:31:45.109Z,17.74
2022-11-16T01:34:13.446Z,17.73
2022-11-16T01:36:42.028Z,17.77
2022-11-16T01:39:11.908Z,17.81
2022-11-16T01:41:39.587Z,17.81
2022-11-16T01:44:45.186Z,17.66
2022-11-16T01:47:15.426Z,17.79
2022-11-16T01:49:47.766Z,17.83
2022-11-16T01:52:21.787Z,17.84
2022-11-16T01:54:53.667Z,17.70
2022-11-16T01:57:26.066Z,17.45
2022-11-16T01:59:58.128Z,17.55
2022-11-16T02:02:25.347Z,17.47
2022-11-16T02:04:55.092Z,17.41
2022-11-16T02:07:40.567Z,17.28
2022-11-16T02:10:24.347Z,17.24
2022-11-16T02:13:15.565Z,17.33
2022-11-16T02:15:48.014Z,17.21
2022-11-16T02:18:30.311Z,17.10
2022-11-16T02:21:14.787Z,16.75
2022-11-16T02:24:14.467Z,16.81
2022-11-16T02:27:20.206Z,16.92
2022-11-16T02:29:53.369Z,17.14
2022-11-16T02:32:30.286Z,17.13
2022-11-16T02:35:05.385Z,17.04
2022-11-16T02:37:39.805Z,17.19
2022-11-16T02:40:13.005Z,17.26
2022-11-16T02:42:47.847Z,17.41
2022-11-16T02:45:22.404Z,18.12
2022-11-16T02:47:53.464Z,18.03
2022-11-16T02:50:23.984Z,17.97
2022-11-16T02:52:51.009Z,18.66
2022-11-16T02:55:18.445Z,19.18
2022-11-16T02:57:51.885Z,19.56
2022-11-16T03:00:24.048Z,19.74
2022-11-16T03:03:07.622Z,19.88
2022-11-16T03:05:40.696Z,20.06
2022-11-16T03:08:17.481Z,20.09
2022-11-16T03:10:50.558Z,20.21
2022-11-16T03:13:21.858Z,20.24
2022-11-16T03:15:53.178Z,20.11
2022-11-16T03:18:26.657Z,20.10
2022-11-16T03:21:02.210Z,20.10
2022-11-16T03:23:29.878Z,20.06
2022-11-16T03:26:00.276Z,19.95
2022-11-16T03:28:36.779Z,19.99
2022-11-16T03:31:13.438Z,19.89
2022-11-16T03:33:48.719Z,19.97
2022-11-16T03:36:22.797Z,19.83
2022-11-16T03:38:52.961Z,19.75
2022-11-16T03:41:24.577Z,19.62
2022-11-16T03:43:55.198Z,19.63
2022-11-16T03:46:24.559Z,19.65
2022-11-16T03:48:58.316Z,19.68
2022-11-16T03:51:26.337Z,19.64
2022-11-16T03:53:53.457Z,19.78
2022-11-16T03:56:20.658Z,19.78
2022-11-16T03:58:47.763Z,19.65
2022-11-16T04:01:14.905Z,19.64
2022-11-16T04:03:43.497Z,19.82
2022-11-16T04:06:11.217Z,19.87
2022-11-16T04:08:38.237Z,19.80
2022-11-16T04:11:05.978Z,19.71
2022-11-16T04:13:34.899Z,19.74
2022-11-16T04:16:01.925Z,19.79
2022-11-16T04:18:29.061Z,19.70
2022-11-16T04:20:58.046Z,19.73
2022-11-16T04:23:25.337Z,19.70
2022-11-16T04:25:52.847Z,19.84
2022-11-16T04:28:25.786Z,19.76
2022-11-16T04:30:57.617Z,19.84
2022-11-16T04:33:25.121Z,19.86
2022-11-16T04:35:52.126Z,19.83
2022-11-16T04:38:20.886Z,19.86
2022-11-16T04:40:48.167Z,19.96
2022-11-16T04:43:15.333Z,19.95
2022-11-16T04:45:42.489Z,19.86
2022-11-16T04:48:10.151Z,19.85
2022-11-16T04:50:37.757Z,19.85
2022-11-16T04:53:06.373Z,19.85
2022-11-16T04:55:35.487Z,19.94
2022-11-16T04:58:03.130Z,19.90
2022-11-16T05:00:30.884Z,19.81
2022-11-16T05:03:01.503Z,19.82
2022-11-16T05:05:29.004Z,19.83
2022-11-16T05:07:56.285Z,19.84
2022-11-16T05:10:23.405Z,19.84
2022-11-16T05:12:52.065Z,19.83
2022-11-16T05:15:19.081Z,19.82
2022-11-16T05:17:46.200Z,19.76
2022-11-16T05:20:13.271Z,19.83
2022-11-16T05:22:40.345Z,19.66
2022-11-16T05:25:09.546Z,19.74
2022-11-16T05:27:37.190Z,19.76
2022-11-16T05:30:07.110Z,19.74
2022-11-16T05:32:34.252Z,19.75
2022-11-16T05:35:01.324Z,19.78
2022-11-16T05:37:28.581Z,19.86
2022-11-16T05:39:55.682Z,19.84
2022-11-16T05:42:23.403Z,19.75
2022-11-16T05:44:50.563Z,19.82
2022-11-16T05:47:19.127Z,19.81
2022-11-16T05:49:46.152Z,19.92
2022-11-16T05:52:13.272Z,19.80
2022-11-16T05:54:40.424Z,19.76
2022-11-16T05:57:07.658Z,19.83
2022-11-16T05:59:34.812Z,19.79
2022-11-16T06:02:01.927Z,19.76
2022-11-16T06:04:30.520Z,19.87
2022-11-16T06:06:57.587Z,19.87
2022-11-16T06:09:24.685Z,19.95
2022-11-16T06:11:52.097Z,19.88
2022-11-16T06:14:19.254Z,19.86
2022-11-16T06:16:46.343Z,19.76
2022-11-16T06:19:13.369Z,19.86
2022-11-16T06:21:41.984Z,19.81
2022-11-16T06:24:09.333Z,19.81
2022-11-16T06:26:36.678Z,19.82
2022-11-16T06:29:04.535Z,19.87
2022-11-16T06:31:32.413Z,19.81
2022-11-16T06:33:59.502Z,19.85
2022-11-16T06:36:26.616Z,19.87
2022-11-16T06:38:55.168Z,19.83
2022-11-16T06:41:22.359Z,19.83
2022-11-16T06:43:49.467Z,19.72
2022-11-16T06:46:16.651Z,19.70
2022-11-16T06:48:44.041Z,19.71
2022-11-16T06:51:11.440Z,19.86
2022-11-16T06:53:38.487Z,20.12
2022-11-16T06:56:08.173Z,20.06
2022-11-16T06:58:35.593Z,19.92
2022-11-16T07:01:07.253Z,19.90
2022-11-16T07:03:34.347Z,19.77
2022-11-16T07:06:06.910Z,20.03
2022-11-16T07:08:34.200Z,20.02
2022-11-16T07:11:08.531Z,20.00
2022-11-16T07:13:37.404Z,20.07
2022-11-16T07:16:06.767Z,20.15
2022-11-16T07:18:35.607Z,20.66
2022-11-16T07:21:06.527Z,20.97
2022-11-16T07:23:33.971Z,21.16
2022-11-16T07:26:01.851Z,21.34
2022-11-16T07:28:31.007Z,21.51
2022-11-16T07:31:01.369Z,21.70
2022-11-16T07:33:29.110Z,21.87
2022-11-16T07:36:01.490Z,22.37
2022-11-16T07:38:29.169Z,22.74
2022-11-16T07:41:00.062Z,23.09
2022-11-16T07:43:30.692Z,22.81
2022-11-16T07:46:30.252Z,22.34
2022-11-16T07:48:48.672Z,21.91
2022-11-16T07:51:17.502Z,21.57
2022-11-16T07:53:45.810Z,21.24
2022-11-16T07:56:13.465Z,21.13
2022-11-16T07:58:42.091Z,20.96
2022-11-16T08:01:11.153Z,20.77
2022-11-16T08:03:39.869Z,20.65
2022-11-16T08:06:11.284Z,20.46
2022-11-16T08:08:38.481Z,20.37
2022-11-16T08:11:07.882Z,20.44
2022-11-16T08:13:37.050Z,20.40
2022-11-16T08:16:08.045Z,20.28
2022-11-16T08:18:36.762Z,20.27
2022-11-16T08:21:05.098Z,20.30
2022-11-16T08:23:33.257Z,20.35
2022-11-16T08:26:01.878Z,20.40
2022-11-16T08:28:30.511Z,20.36
2022-11-16T08:30:59.204Z,20.22
2022-11-16T08:33:29.457Z,20.16
2022-11-16T08:35:56.537Z,20.09
2022-11-16T08:38:23.601Z,20.05
2022-11-16T08:43:35.161Z,19.94
2022-11-16T08:46:02.352Z,19.92
2022-11-16T08:48:31.032Z,19.85
2022-11-16T08:51:16.884Z,19.86
2022-11-16T08:53:45.096Z,19.84
2022-11-16T08:56:12.816Z,19.93
2022-11-16T08:58:41.652Z,19.88
2022-11-16T09:01:09.861Z,19.84
2022-11-16T09:03:38.943Z,19.84
2022-11-16T09:06:07.900Z,20.09
2022-11-16T09:08:37.776Z,20.53
2022-11-16T09:11:05.812Z,20.98
2022-11-16T09:13:33.158Z,21.39
2022-11-16T09:16:01.381Z,21.69
2022-11-16T09:18:29.627Z,21.79
2022-11-16T09:20:58.224Z,21.92
2022-11-16T09:23:25.843Z,21.89
2022-11-16T09:25:54.620Z,22.32
2022-11-16T09:28:22.899Z,22.56
2022-11-16T09:30:51.490Z,22.19
2022-11-16T09:33:19.186Z,22.07
2022-11-16T09:35:46.489Z,21.82
2022-11-16T09:38:20.719Z,21.81
2022-11-16T09:40:54.085Z,21.86
2022-11-16T09:43:44.107Z,22.11
2022-11-16T09:46:24.678Z,22.43
2022-11-16T09:48:56.680Z,21.89
2022-11-16T09:51:30.076Z,22.61
2022-11-16T09:54:05.658Z,22.60
2022-11-16T09:56:37.784Z,22.73
2022-11-16T09:59:18.167Z,22.98
2022-11-16T10:01:52.880Z,22.94
2022-11-16T10:04:31.226Z,23.29
2022-11-16T10:07:05.898Z,23.47
2022-11-16T10:09:36.340Z,23.60
2022-11-16T10:12:23.355Z,23.79
2022-11-16T10:15:17.275Z,23.85
2022-11-16T10:18:03.593Z,23.97
2022-11-16T10:20:49.858Z,24.04
2022-11-16T10:23:31.081Z,23.87
2022-11-16T10:26:16.830Z,23.98
2022-11-16T10:29:15.763Z,24.01
2022-11-16T10:32:03.330Z,24.01
2022-11-16T10:34:43.284Z,23.95
2022-11-16T10:37:14.156Z,23.66
2022-11-16T10:39:41.960Z,23.11
2022-11-16T10:42:19.275Z,23.13
2022-11-16T10:44:53.865Z,23.00
2022-11-16T10:47:30.890Z,22.95
2022-11-16T10:50:04.986Z,22.88
2022-11-16T10:52:32.066Z,22.76
2022-11-16T10:54:59.108Z,22.81
2022-11-16T10:57:54.184Z,22.42
2022-11-16T11:00:46.259Z,22.64
2022-11-16T11:03:14.645Z,22.61
2022-11-16T11:05:52.885Z,22.61
2022-11-16T11:08:28.926Z,22.65
2022-11-16T11:11:02.008Z,22.51
2022-11-16T11:13:30.713Z,22.46
2022-11-16T11:16:15.505Z,22.35
2022-11-16T11:18:42.944Z,22.20
2022-11-16T11:21:18.698Z,22.09
2022-11-16T11:23:49.366Z,22.03
2022-11-16T11:26:36.537Z,22.01
2022-11-16T11:29:27.287Z,21.97
2022-11-16T11:31:59.590Z,21.90
2022-11-16T11:34:30.429Z,21.92
2022-11-16T11:37:01.387Z,21.86
2022-11-16T11:39:35.120Z,21.72
2022-11-16T11:42:23.431Z,21.87
2022-11-16T11:44:57.865Z,21.85
2022-11-16T11:48:00.359Z,21.85
2022-11-16T11:50:43.105Z,21.94
2022-11-16T11:53:28.126Z,22.03
2022-11-16T11:55:58.786Z,22.10
2022-11-16T11:58:31.373Z,22.17
2022-11-16T12:01:25.542Z,22.20
2022-11-16T12:04:23.965Z,22.22
2022-11-16T12:07:03.225Z,22.23
2022-11-16T12:09:44.605Z,22.45
2022-11-16T12:12:28.789Z,22.51
2022-11-16T12:15:26.529Z,22.44
2022-11-16T12:18:08.104Z,22.66
2022-11-16T12:20:51.506Z,22.46
2022-11-16T12:23:37.795Z,22.45
2022-11-16T12:26:14.125Z,22.68
2022-11-16T12:28:58.044Z,22.65
2022-11-16T12:31:53.184Z,22.60
2022-11-16T12:34:39.585Z,22.26
2022-11-16T12:40:00.585Z,22.42
2022-11-16T12:42:40.478Z,22.41
2022-11-16T12:45:45.891Z,22.45
2022-11-16T12:48:59.974Z,22.52
2022-11-16T12:51:48.905Z,22.20
2022-11-16T12:55:19.076Z,22.40
2022-11-16T12:57:52.883Z,22.36
2022-11-16T13:00:20.525Z,22.13
2022-11-16T13:03:08.626Z,22.21
2022-11-16T13:05:54.550Z,22.13
2022-11-16T13:08:41.251Z,21.91
2022-11-16T13:11:15.928Z,22.02
2022-11-16T13:13:51.481Z,21.96
2022-11-16T13:16:22.624Z,22.00
2022-11-16T13:18:52.685Z,21.89
2022-11-16T13:21:30.866Z,21.77
2022-11-16T13:24:21.588Z,21.80
2022-11-16T13:26:57.705Z,21.71
2022-11-16T13:29:34.316Z,21.60
2022-11-16T13:32:14.024Z,21.63
2022-11-16T13:34:42.044Z,21.69
2022-11-16T13:37:43.068Z,21.54
2022-11-16T13:40:22.564Z,21.65
2022-11-16T13:43:05.284Z,21.58
2022-11-16T13:45:37.264Z,21.58
2022-11-16T13:48:17.406Z,21.59
2022-11-16T13:50:51.185Z,21.46
2022-11-16T13:54:17.851Z,21.18
2022-11-16T13:56:28.351Z,21.13
2022-11-16T13:58:58.557Z,21.08
2022-11-16T14:01:26.032Z,21.00
2022-11-16T14:04:31.626Z,20.82
2022-11-16T14:07:00.247Z,20.65
2022-11-16T14:09:48.069Z,20.45
2022-11-16T14:12:54.705Z,20.46
2022-11-16T14:15:28.947Z,20.53
2022-11-16T14:18:00.525Z,20.19
2022-11-16T14:20:53.156Z,19.57
2022-11-16T14:23:35.048Z,20.11
2022-11-16T14:26:18.670Z,20.31
2022-11-16T14:29:07.046Z,20.41
2022-11-16T14:31:51.911Z,20.47
2022-11-16T14:34:23.645Z,20.44
2022-11-16T14:36:51.946Z,20.35
2022-11-16T14:39:33.644Z,20.21
2022-11-16T14:42:05.964Z,20.30
2022-11-16T14:44:38.488Z,20.34
2022-11-16T14:47:23.424Z,20.27
2022-11-16T14:49:51.758Z,20.31
2022-11-16T14:52:27.305Z,19.98
2022-11-16T14:54:58.825Z,20.13
2022-11-16T14:57:26.385Z,20.18
2022-11-16T15:00:09.028Z,20.18
2022-11-16T15:02:39.917Z,20.21
2022-11-16T15:05:07.934Z,20.09
2022-11-16T15:07:35.201Z,20.12
2022-11-16T15:10:02.645Z,20.15
2022-11-16T15:12:41.469Z,20.14
2022-11-16T15:15:15.424Z,20.14
2022-11-16T15:17:46.565Z,20.14
2022-11-16T15:20:19.005Z,20.11
2022-11-16T15:22:48.286Z,20.13
2022-11-16T15:25:28.188Z,20.16
2022-11-16T15:27:57.384Z,20.09
2022-11-16T15:30:27.224Z,20.10
2022-11-16T15:32:56.807Z,19.99
2022-11-16T15:35:28.108Z,20.03
2022-11-16T15:38:03.009Z,20.07
2022-11-16T15:40:31.066Z,20.10
2022-11-16T15:43:01.224Z,20.09
2022-11-16T15:45:31.829Z,20.05
2022-11-16T15:48:03.086Z,20.00
2022-11-16T15:50:30.774Z,20.01
2022-11-16T15:52:58.289Z,19.84
2022-11-16T15:55:33.166Z,19.84
2022-11-16T15:58:13.706Z,19.87
2022-11-16T16:00:42.566Z,19.88
2022-11-16T16:03:22.324Z,19.85
2022-11-16T16:05:50.126Z,19.81
2022-11-16T16:08:29.325Z,19.78
2022-11-16T16:11:10.727Z,19.75
2022-11-16T16:13:40.147Z,19.74
2022-11-16T16:16:27.186Z,19.73
2022-11-16T16:19:00.772Z,19.63
2022-11-16T16:21:42.527Z,19.56
2022-11-16T16:24:31.927Z,19.50
2022-11-16T16:26:59.045Z,19.44
2022-11-16T16:29:27.746Z,19.43
2022-11-16T16:31:56.325Z,19.39
2022-11-16T16:34:25.454Z,19.36
2022-11-16T16:36:53.270Z,19.32
2022-11-16T16:39:20.751Z,19.28
2022-11-16T16:41:48.302Z,19.23
2022-11-16T16:44:16.488Z,19.18
2022-11-16T16:46:43.685Z,19.09
2022-11-16T16:49:11.388Z,19.01
2022-11-16T16:51:40.486Z,18.92
2022-11-16T16:54:09.847Z,18.86
2022-11-16T16:56:37.187Z,18.75
2022-11-16T16:59:04.746Z,18.71
2022-11-16T17:01:32.194Z,18.69
2022-11-16T17:03:59.906Z,18.62
2022-11-16T17:06:27.665Z,18.56
2022-11-16T17:08:57.830Z,18.50
2022-11-16T17:11:26.408Z,18.46
2022-11-16T17:13:54.627Z,18.48
2022-11-16T17:16:22.306Z,18.47
2022-11-16T17:18:54.766Z,18.49
2022-11-16T17:21:23.107Z,18.47
2022-11-16T17:23:51.034Z,18.45
2022-11-16T17:26:21.147Z,18.49
2022-11-16T17:28:49.907Z,18.50
2022-11-16T17:31:18.388Z,18.55
2022-11-16T17:33:46.407Z,18.44
2022-11-16T17:36:15.586Z,18.48
2022-11-16T17:38:44.606Z,18.47
2022-11-16T17:41:15.349Z,18.42
2022-11-16T17:43:47.249Z,18.40
2022-11-16T17:46:17.907Z,18.35
2022-11-16T17:48:48.466Z,18.29
2022-11-16T17:51:19.194Z,18.30
2022-11-16T17:53:47.606Z,18.27
2022-11-16T17:56:18.946Z,18.18
2022-11-16T17:58:50.388Z,18.17
2022-11-16T18:01:19.536Z,18.21
2022-11-16T18:03:47.334Z,18.23
2022-11-16T18:06:17.906Z,18.24
2022-11-16T18:08:45.647Z,18.27
2022-11-16T18:11:14.852Z,18.34
2022-11-16T18:13:42.209Z,18.38
2022-11-16T18:16:13.328Z,18.31
2022-11-16T18:18:41.688Z,18.24
2022-11-16T18:21:10.048Z,18.29
2022-11-16T18:23:38.565Z,18.27
2022-11-16T18:26:08.544Z,18.30
2022-11-16T18:28:36.223Z,18.27
2022-11-16T18:31:05.064Z,18.34
2022-11-16T18:33:36.042Z,18.32
2022-11-16T18:36:04.245Z,18.33
2022-11-16T18:38:31.712Z,18.35
2022-11-16T18:41:07.246Z,18.34
2022-11-16T18:43:35.350Z,18.34
2022-11-16T18:46:02.745Z,18.35
2022-11-16T18:48:30.305Z,18.31
2022-11-16T18:51:04.206Z,18.33
2022-11-16T18:53:33.209Z,18.29
2022-11-16T18:56:00.926Z,18.24
2022-11-16T18:58:50.198Z,18.25
2022-11-16T19:01:17.867Z,18.25
2022-11-16T19:03:45.165Z,18.26
2022-11-16T19:06:13.924Z,18.24
2022-11-16T19:08:41.944Z,18.17
2022-11-16T19:11:11.385Z,18.16
2022-11-16T19:13:39.584Z,18.12
2022-11-16T19:16:07.904Z,18.04
2022-11-16T19:18:35.745Z,18.03
2022-11-16T19:21:04.704Z,17.99
2022-11-16T19:23:37.885Z,17.89
2022-11-16T19:26:06.296Z,17.82
2022-11-16T19:28:36.118Z,17.79
2022-11-16T19:31:11.426Z,17.71
2022-11-16T19:33:39.803Z,17.75
2022-11-16T19:36:08.965Z,17.70
2022-11-16T19:38:38.203Z,17.70
2022-11-16T19:41:06.303Z,17.74
2022-11-16T19:43:34.573Z,17.67
2022-11-16T19:46:03.144Z,17.74
2022-11-16T19:48:31.419Z,17.85
2022-11-16T19:51:04.545Z,17.83
2022-11-16T19:53:31.840Z,17.86
2022-11-16T19:56:00.683Z,17.86
2022-11-16T19:58:28.544Z,17.79
2022-11-16T20:01:01.085Z,17.78
2022-11-16T20:03:28.303Z,17.75
2022-11-16T20:06:05.263Z,17.70
2022-11-16T20:08:32.542Z,17.69
2022-11-16T20:11:01.280Z,17.75
2022-11-16T20:13:28.563Z,17.80
2022-11-16T20:15:55.740Z,17.79
2022-11-16T20:18:22.943Z,17.81
2022-11-16T20:20:50.063Z,17.83
2022-11-16T20:23:17.242Z,17.86
2022-11-16T20:25:44.453Z,17.88
2022-11-16T20:28:13.060Z,19.21
2022-11-16T20:30:45.779Z,20.03
2022-11-16T20:33:13.100Z,20.59
2022-11-16T20:35:40.219Z,21.09
2022-11-16T20:38:07.760Z,21.44
2022-11-16T20:40:34.901Z,21.80
2022-11-16T20:43:02.080Z,21.13
2022-11-16T20:45:32.940Z,20.55
2022-11-16T20:48:00.124Z,20.14
2022-11-16T20:50:27.360Z,19.82
2022-11-16T20:52:54.961Z,19.50
2022-11-16T20:55:22.280Z,19.28
2022-11-16T20:57:49.680Z,19.07
2022-11-16T21:00:18.702Z,18.91
2022-11-16T21:02:47.492Z,18.81
2022-11-16T21:05:15.032Z,18.70
2022-11-16T21:07:42.320Z,18.67
2022-11-16T21:10:10.962Z,18.63
2022-11-16T21:12:42.661Z,18.57
2022-11-16T21:15:11.258Z,18.55
2022-11-16T21:17:38.461Z,18.51
2022-11-16T21:22:56.721Z,18.40
2022-11-16T21:25:24.639Z,18.41
2022-11-16T21:27:52.821Z,18.39
2022-11-16T21:30:20.720Z,18.35
2022-11-16T21:32:48.079Z,18.36
2022-11-16T21:35:17.242Z,18.39
2022-11-16T21:37:44.681Z,18.35
2022-11-16T21:40:12.662Z,18.32
2022-11-16T21:42:39.863Z,18.33
2022-11-16T21:45:08.492Z,18.31
2022-11-16T21:47:35.734Z,18.30
2022-11-16T21:50:32.794Z,18.30
2022-11-16T21:52:51.480Z,18.30
2022-11-16T21:55:19.442Z,18.28
2022-11-16T21:57:46.541Z,18.29
2022-11-16T22:00:16.082Z,18.29
2022-11-16T22:02:43.419Z,18.33
2022-11-16T22:05:10.684Z,18.28
2022-11-16T22:07:40.002Z,18.30
2022-11-16T22:10:11.404Z,18.34
2022-11-16T22:12:39.503Z,18.30
2022-11-16T22:15:08.480Z,18.35
2022-11-16T22:17:35.619Z,18.28
2022-11-16T22:20:02.948Z,18.28
2022-11-16T22:22:30.240Z,18.30
2022-11-16T22:24:57.420Z,18.34
2022-11-16T22:27:26.332Z,18.26
2022-11-16T22:29:53.432Z,18.28
2022-11-16T22:32:20.662Z,18.28
2022-11-16T22:34:48.200Z,18.30
2022-11-16T22:37:15.360Z,18.28
2022-11-16T22:39:43.204Z,18.29
2022-11-16T22:42:10.702Z,18.29
2022-11-16T22:44:39.373Z,18.26
2022-11-16T22:47:06.681Z,18.26
2022-11-16T22:49:33.863Z,18.24
2022-11-16T22:52:01.081Z,18.07
2022-11-16T22:54:28.891Z,18.14
2022-11-16T22:56:56.364Z,18.25
2022-11-16T22:59:23.843Z,18.29
2022-11-16T23:01:52.518Z,18.34
2022-11-16T23:04:20.063Z,18.37
2022-11-16T23:06:47.303Z,18.33
2022-11-16T23:09:14.593Z,18.36
2022-11-16T23:11:41.802Z,18.38
2022-11-16T23:14:12.046Z,18.34
2022-11-16T23:16:40.507Z,18.36
2022-11-16T23:19:11.963Z,18.34
2022-11-16T23:21:39.114Z,18.33
2022-11-16T23:24:09.927Z,18.28
2022-11-16T23:26:37.114Z,18.28
2022-11-16T23:29:08.004Z,18.26
2022-11-16T23:31:35.383Z,18.25
2022-11-16T23:34:02.739Z,18.23
2022-11-16T23:36:31.424Z,18.24
2022-11-16T23:38:58.604Z,18.19
2022-11-16T23:41:25.894Z,18.18
2022-11-16T23:43:53.056Z,18.19
2022-11-16T23:46:20.341Z,18.13
2022-11-16T23:48:47.611Z,18.16
2022-11-16T23:51:14.703Z,18.18
2022-11-16T23:53:43.602Z,18.17
2022-11-16T23:56:10.902Z,18.17
2022-11-16T23:58:38.263Z,18.17
